Time;durP1;ratioP1;P1;durP2;ratioP2;P2;SDS_P1;SDS_P2;PMS_P1;PMS_P2;Temp;Humidity;BMP_temperature;BMP_pressure;BME280_temperature;BME280_humidity;BME280_pressure;Samples;Min_cycle;Max_cycle;Signal;HPM_P1;HPM_P2
2020/12/24 00:01:41;;;;;;;;;;;;;;;9.43;83.97;97496.15;1762894;80;25109;-88
2020/12/24 00:04:27;;;;;;;;;;;;;;;9.44;83.96;97486.50;1793494;78;21787;-88
2020/12/24 00:07:13;;;;;;;;;;;;;;;9.46;83.95;97480.22;1769625;80;27097;-88
2020/12/24 00:10:01;;;;;;;;;;;;;;;9.45;83.96;97477.25;1758072;80;25457;-87
2020/12/24 00:12:48;;;;;;;;;;;;;;;9.46;83.94;97484.61;1767681;80;20371;-88
2020/12/24 00:15:35;;;;;;;;;;;;;;;9.46;83.94;97480.69;1758761;80;24989;-88
2020/12/24 00:18:23;;;;;;;;;;;;;;;9.45;83.95;97475.95;1755755;80;22236;-88
2020/12/24 00:21:10;;;;;;;;;;;;;;;9.48;83.93;97478.80;1730293;80;25655;-89
2020/12/24 00:23:45;;;;;;;;;;;;;;;9.47;83.94;97477.97;1735182;81;23847;-90
2020/12/24 00:26:32;;;;;;;;;;;;;;;9.47;83.92;97475.83;1755056;80;20513;-89
2020/12/24 00:29:19;;;;;;;;;;;;;;;9.50;83.90;97476.40;1754757;79;24728;-89
2020/12/24 00:32:05;;;;;;;;;;;;;;;9.54;83.90;97481.75;1751044;80;22001;-88
2020/12/24 00:34:57;;;;;;;;;;;;;;;9.57;83.89;97484.58;1751314;80;27054;-89
2020/12/24 00:37:44;;;;;;;;;;;;;;;9.58;83.90;97474.02;1748783;80;24592;-87
2020/12/24 00:40:31;;;;;;;;;;;;;;;9.64;83.90;97479.22;1779478;78;20286;-89
2020/12/24 00:43:21;;;;;;;;;;;;;;;9.63;83.90;97475.77;1753559;80;25066;-89
2020/12/24 00:46:07;;;;;;;;;;;;;;;9.63;83.90;97476.25;1748216;80;22202;-88
2020/12/24 00:48:58;;;;;;;;;;;;;;;9.66;83.90;97489.05;1748484;80;26108;-89
2020/12/24 00:51:44;;;;;;;;;;;;;;;9.68;83.88;97485.02;1730979;80;24760;-89
2020/12/24 00:54:31;;;;;;;;;;;;;;;9.70;83.87;97488.34;1766706;79;20335;-88
2020/12/24 00:57:18;;;;;;;;;;;;;;;9.68;83.86;97488.93;1734883;80;24976;-89
2020/12/24 01:00:05;;;;;;;;;;;;;;;9.70;83.83;97500.09;1806939;77;21648;-89
2020/12/24 01:02:51;;;;;;;;;;;;;;;9.71;83.83;97496.53;1777560;79;26302;-89
2020/12/24 01:05:39;;;;;;;;;;;;;;;9.73;83.79;97498.05;1763314;79;24604;-89
2020/12/24 01:08:26;;;;;;;;;;;;;;;9.80;83.76;97503.61;1743591;80;20277;-88
2020/12/24 01:11:17;;;;;;;;;;;;;;;9.83;83.75;97503.35;1764070;80;24936;-87
2020/12/24 01:14:03;;;;;;;;;;;;;;;9.91;83.71;97501.78;1773216;80;21877;-89
2020/12/24 01:16:50;;;;;;;;;;;;;;;10.03;83.70;97503.40;1775676;80;26115;-88
2020/12/24 01:19:41;;;;;;;;;;;;;;;10.20;83.68;97501.20;1778927;80;24598;-87
2020/12/24 01:22:27;;;;;;;;;;;;;;;10.40;83.65;97498.58;1775715;79;20532;-88
2020/12/24 01:25:15;;;;;;;;;;;;;;;10.60;83.63;97492.13;1772726;79;24951;-89
2020/12/24 01:28:01;;;;;;;;;;;;;;;10.78;83.62;97496.63;1765346;79;22132;-89
2020/12/24 01:30:50;;;;;;;;;;;;;;;10.97;83.60;97482.78;1748725;80;26223;-88
2020/12/24 01:33:37;;;;;;;;;;;;;;;11.06;83.56;97488.55;1757855;80;24584;-87
2020/12/24 01:36:25;;;;;;;;;;;;;;;11.11;83.55;97492.90;1780110;78;20274;-89
2020/12/24 01:39:11;;;;;;;;;;;;;;;11.17;83.51;97481.89;1779382;78;24996;-88
2020/12/24 01:41:58;;;;;;;;;;;;;;;11.23;83.44;97467.44;1745538;80;22176;-89
2020/12/24 01:44:32;;;;;;;;;;;;;;;11.28;83.38;97472.62;1763362;79;27189;-89
2020/12/24 01:47:19;;;;;;;;;;;;;;;11.31;83.29;97456.62;1731600;80;24607;-89
2020/12/24 01:50:06;;;;;;;;;;;;;;;11.34;83.22;97452.91;1786364;78;20466;-89
2020/12/24 01:52:54;;;;;;;;;;;;;;;11.36;83.13;97454.89;1730219;80;24641;-89
2020/12/24 01:55:41;;;;;;;;;;;;;;;11.38;83.03;97457.39;1747632;80;22235;-88
2020/12/24 01:58:28;;;;;;;;;;;;;;;11.36;82.96;97456.20;1728865;81;25375;-89
2020/12/24 02:01:15;;;;;;;;;;;;;;;11.36;82.88;97451.44;1750134;80;24551;-88
2020/12/24 02:04:02;;;;;;;;;;;;;;;11.35;82.77;97463.71;1779740;79;20616;-88
2020/12/24 02:06:48;;;;;;;;;;;;;;;11.32;82.70;97454.35;1778722;79;25056;-88
2020/12/24 02:09:34;;;;;;;;;;;;;;;11.31;82.61;97450.07;1779434;80;22105;-89
2020/12/24 02:12:21;;;;;;;;;;;;;;;11.31;82.53;97453.16;1786300;79;26011;-88
2020/12/24 02:15:07;;;;;;;;;;;;;;;11.31;82.44;97457.92;1777314;79;24562;-88
2020/12/24 02:17:53;;;;;;;;;;;;;;;11.30;82.35;97455.44;1779077;79;20420;-87
2020/12/24 02:20:40;;;;;;;;;;;;;;;11.29;82.28;97447.25;1778201;79;25081;-88
2020/12/24 02:23:27;;;;;;;;;;;;;;;11.27;82.22;97443.45;1816269;78;22374;-88
2020/12/24 02:26:14;;;;;;;;;;;;;;;11.27;82.14;97432.98;1815419;78;26115;-88
2020/12/24 02:29:00;;;;;;;;;;;;;;;11.28;82.04;97440.36;1778569;79;24586;-88
2020/12/24 02:31:46;;;;;;;;;;;;;;;11.27;81.94;97427.73;1776870;79;20258;-88
2020/12/24 02:34:33;;;;;;;;;;;;;;;11.25;81.86;97429.66;1737027;80;24698;-88
2020/12/24 02:37:23;;;;;;;;;;;;;;;11.24;81.76;97429.30;1753913;80;21466;-88
2020/12/24 02:40:09;;;;;;;;;;;;;;;11.26;81.64;97422.15;1750792;80;25870;-88
2020/12/24 02:42:57;;;;;;;;;;;;;;;11.24;81.55;97434.54;1791315;79;24360;-89
2020/12/24 02:45:44;;;;;;;;;;;;;;;11.24;81.45;97440.25;1791004;79;20363;-89
2020/12/24 02:48:31;;;;;;;;;;;;;;;11.26;81.35;97447.03;1781539;79;24978;-88
2020/12/24 02:51:17;;;;;;;;;;;;;;;11.26;81.26;97470.60;1752328;80;22129;-89
2020/12/24 02:54:04;;;;;;;;;;;;;;;11.26;81.19;97472.39;1783903;79;26325;-89
2020/12/24 02:56:50;;;;;;;;;;;;;;;11.27;81.09;97482.74;1754882;80;24966;-89
2020/12/24 02:59:37;;;;;;;;;;;;;;;11.30;80.99;97480.31;1785559;79;20176;-89
2020/12/24 03:02:24;;;;;;;;;;;;;;;11.30;80.94;97481.62;1783509;79;25788;-89
2020/12/24 03:05:11;;;;;;;;;;;;;;;11.29;80.87;97472.94;1788196;79;22088;-88
2020/12/24 03:07:57;;;;;;;;;;;;;;;11.27;80.80;97468.34;1781129;79;26107;-89
2020/12/24 03:10:44;;;;;;;;;;;;;;;11.26;80.71;97457.98;1785333;79;24572;-88
2020/12/24 03:13:30;;;;;;;;;;;;;;;11.25;80.63;97457.16;1776276;79;20378;-88
2020/12/24 03:16:22;;;;;;;;;;;;;;;11.24;80.57;97452.88;1784716;79;24687;-89
2020/12/24 03:19:08;;;;;;;;;;;;;;;11.22;80.50;97445.66;1821843;77;22921;-88
2020/12/24 03:21:56;;;;;;;;;;;;;;;11.21;80.42;97446.61;1755029;80;26132;-89
2020/12/24 03:24:42;;;;;;;;;;;;;;;11.19;80.36;97440.67;1755036;80;25572;-88
2020/12/24 03:27:28;;;;;;;;;;;;;;;11.18;80.27;97431.15;1786375;79;20350;-88
2020/12/24 03:30:17;;;;;;;;;;;;;;;11.16;80.21;97429.64;1781841;79;25645;-89
2020/12/24 03:33:06;;;;;;;;;;;;;;;11.15;80.12;97430.61;1786876;79;22307;-88
2020/12/24 03:35:53;;;;;;;;;;;;;;;11.13;80.08;97437.75;1786969;79;27089;-88
2020/12/24 03:38:40;;;;;;;;;;;;;;;11.12;80.00;97436.95;1788650;79;24096;-88
2020/12/24 03:41:26;;;;;;;;;;;;;;;11.12;79.93;97423.86;1758884;79;20375;-88
2020/12/24 03:44:15;;;;;;;;;;;;;;;11.13;79.88;97428.59;1782406;79;25118;-88
2020/12/24 03:47:01;;;;;;;;;;;;;;;11.11;79.82;97431.84;1787349;79;22049;-88
2020/12/24 03:49:47;;;;;;;;;;;;;;;11.10;79.75;97420.54;1760453;80;25641;-88
2020/12/24 03:52:34;;;;;;;;;;;;;;;11.11;79.69;97418.75;1783014;79;24604;-87
2020/12/24 03:55:29;;;;;;;;;;;;;;;11.11;79.63;97410.90;1786029;79;20287;-88
2020/12/24 03:58:16;;;;;;;;;;;;;;;11.09;79.59;97410.19;1794942;79;25163;-88
2020/12/24 04:01:05;;;;;;;;;;;;;;;11.09;79.54;97408.88;1783690;79;22966;-89
2020/12/24 04:03:53;;;;;;;;;;;;;;;11.06;79.51;97412.61;1791315;79;27983;-89
2020/12/24 04:06:40;;;;;;;;;;;;;;;11.07;79.46;97413.45;1732730;80;24305;-88
2020/12/24 04:09:26;;;;;;;;;;;;;;;11.07;79.43;97409.52;1787063;79;20270;-88
2020/12/24 04:12:12;;;;;;;;;;;;;;;11.06;79.41;97398.70;1792290;79;25503;-88
2020/12/24 04:14:59;;;;;;;;;;;;;;;11.04;79.38;97405.84;1786688;79;23167;-88
2020/12/24 04:17:48;;;;;;;;;;;;;;;10.99;79.34;97414.11;1787741;79;27037;-89
2020/12/24 04:20:34;;;;;;;;;;;;;;;10.88;79.32;97395.41;1758806;79;24914;-88
2020/12/24 04:23:23;;;;;;;;;;;;;;;10.90;79.30;97392.67;1781920;79;20261;-87
2020/12/24 04:26:15;;;;;;;;;;;;;;;10.83;79.27;97388.45;1786863;79;25957;-88
2020/12/24 04:29:02;;;;;;;;;;;;;;;10.73;79.22;97371.91;1788486;79;22181;-87
2020/12/24 04:31:50;;;;;;;;;;;;;;;10.70;79.17;97372.63;1820199;77;27120;-87
2020/12/24 04:34:37;;;;;;;;;;;;;;;10.68;79.13;97361.48;1757980;80;24568;-87
2020/12/24 04:37:23;;;;;;;;;;;;;;;10.62;79.09;97358.92;1796238;79;20422;-88
2020/12/24 04:40:10;;;;;;;;;;;;;;;10.61;79.04;97340.73;1792188;79;25905;-88
2020/12/24 04:42:57;;;;;;;;;;;;;;;10.56;79.01;97324.62;1789794;79;22256;-88
2020/12/24 04:45:43;;;;;;;;;;;;;;;10.48;78.99;97326.11;1792291;79;26132;-89
2020/12/24 04:48:30;;;;;;;;;;;;;;;10.46;78.96;97331.97;1755172;80;24590;-88
2020/12/24 04:51:20;;;;;;;;;;;;;;;10.45;78.92;97346.00;1778888;79;20224;-89
2020/12/24 04:54:32;;;;;;;;;;;;;;;10.47;78.87;97359.75;1775908;80;22783;-89
2020/12/24 04:57:20;;;;;;;;;;;;;;;10.49;78.83;97358.33;1711431;81;21875;-90
2020/12/24 05:00:06;;;;;;;;;;;;;;;10.48;78.80;97370.57;1716004;82;26164;-89
2020/12/24 05:02:53;;;;;;;;;;;;;;;10.47;78.77;97387.22;1753792;81;25064;-90
2020/12/24 05:05:41;;;;;;;;;;;;;;;10.45;78.73;97391.77;1707357;82;20273;-89
2020/12/24 05:08:27;;;;;;;;;;;;;;;10.42;78.72;97380.73;1701250;82;24922;-89
2020/12/24 05:11:14;;;;;;;;;;;;;;;10.41;78.69;97382.55;1708827;82;22140;-89
2020/12/24 05:14:00;;;;;;;;;;;;;;;10.36;78.67;97383.90;1718545;82;26974;-89
2020/12/24 05:16:48;;;;;;;;;;;;;;;10.30;78.64;97389.64;1700771;82;24621;-89
2020/12/24 05:19:35;;;;;;;;;;;;;;;10.27;78.61;97382.05;1700341;82;20381;-89
2020/12/24 05:22:21;;;;;;;;;;;;;;;10.24;78.56;97388.38;1758208;80;24813;-89
2020/12/24 05:25:11;;;;;;;;;;;;;;;10.23;78.54;97398.48;1756108;80;22139;-89
2020/12/24 05:27:58;;;;;;;;;;;;;;;10.21;78.48;97396.95;1753311;80;26129;-90
2020/12/24 05:30:46;;;;;;;;;;;;;;;10.22;78.47;97407.77;1750464;80;24441;-88
2020/12/24 05:33:32;;;;;;;;;;;;;;;10.20;78.47;97406.57;1741717;80;20350;-89
2020/12/24 05:36:22;;;;;;;;;;;;;;;10.22;78.42;97412.98;1745216;80;25703;-89
2020/12/24 05:39:09;;;;;;;;;;;;;;;10.23;78.44;97414.66;1741379;80;22265;-89
2020/12/24 05:41:56;;;;;;;;;;;;;;;10.21;78.41;97412.16;1730500;80;26795;-88
2020/12/24 05:44:42;;;;;;;;;;;;;;;10.17;78.37;97416.00;1747073;80;24771;-90
2020/12/24 05:47:29;;;;;;;;;;;;;;;10.16;78.35;97419.56;1747286;80;20300;-89
2020/12/24 05:50:18;;;;;;;;;;;;;;;10.14;78.35;97426.70;1745328;80;24923;-89
2020/12/24 05:52:53;;;;;;;;;;;;;;;10.15;78.29;97425.71;1752989;79;22742;-88
2020/12/24 05:55:40;;;;;;;;;;;;;;;10.14;78.28;97422.77;1751400;81;27484;-88
2020/12/24 05:58:27;;;;;;;;;;;;;;;10.14;78.27;97420.63;1753538;81;24631;-89
2020/12/24 06:01:13;;;;;;;;;;;;;;;10.18;78.26;97432.52;1757054;81;20366;-88
2020/12/24 06:04:02;;;;;;;;;;;;;;;10.22;78.27;97427.38;1730229;81;25020;-89
2020/12/24 06:06:49;;;;;;;;;;;;;;;10.22;78.28;97428.67;1730996;80;21924;-88
2020/12/24 06:09:39;;;;;;;;;;;;;;;10.24;78.26;97429.39;1719654;81;26086;-89
2020/12/24 06:12:25;;;;;;;;;;;;;;;10.25;78.28;97431.05;1740570;81;24704;-89
2020/12/24 06:15:12;;;;;;;;;;;;;;;10.27;78.25;97430.42;1742083;81;20428;-89
2020/12/24 06:18:01;;;;;;;;;;;;;;;10.27;78.27;97416.04;1744980;80;24969;-89
2020/12/24 06:20:49;;;;;;;;;;;;;;;10.24;78.27;97424.98;1739386;81;22143;-89
2020/12/24 06:23:35;;;;;;;;;;;;;;;10.24;78.27;97417.63;1764446;79;26245;-89
2020/12/24 06:26:22;;;;;;;;;;;;;;;10.24;78.27;97423.68;1742869;81;24796;-88
2020/12/24 06:29:09;;;;;;;;;;;;;;;10.24;78.28;97418.45;1716312;82;20540;-89
2020/12/24 06:31:55;;;;;;;;;;;;;;;10.27;78.29;97431.73;1745909;81;25099;-89
2020/12/24 06:34:42;;;;;;;;;;;;;;;10.27;78.28;97422.10;1737606;81;22223;-89
2020/12/24 06:37:29;;;;;;;;;;;;;;;10.28;78.28;97416.39;1739317;80;26872;-89
2020/12/24 06:40:16;;;;;;;;;;;;;;;10.29;78.30;97416.27;1721013;81;24647;-89
2020/12/24 06:43:02;;;;;;;;;;;;;;;10.26;78.32;97414.38;1719655;82;20476;-89
2020/12/24 06:45:49;;;;;;;;;;;;;;;10.26;78.34;97419.61;1713308;82;25058;-90
2020/12/24 06:48:35;;;;;;;;;;;;;;;10.23;78.34;97413.34;1723897;82;22099;-88
2020/12/24 06:51:21;;;;;;;;;;;;;;;10.23;78.35;97405.50;1709588;82;26179;-89
2020/12/24 06:54:10;;;;;;;;;;;;;;;10.20;78.36;97409.19;1720254;82;24599;-90
2020/12/24 06:56:57;;;;;;;;;;;;;;;10.17;78.39;97403.41;1715918;82;20300;-90
2020/12/24 06:59:43;;;;;;;;;;;;;;;10.13;78.43;97409.82;1766633;80;25101;-90
2020/12/24 07:02:30;;;;;;;;;;;;;;;10.11;78.48;97406.50;1772017;80;21957;-89
2020/12/24 07:05:16;;;;;;;;;;;;;;;10.06;78.52;97411.64;1772147;80;26119;-88
2020/12/24 07:08:03;;;;;;;;;;;;;;;10.04;78.54;97410.09;1774426;80;24677;-89
2020/12/24 07:10:50;;;;;;;;;;;;;;;10.02;78.60;97415.48;1769037;80;20690;-89
2020/12/24 07:13:37;;;;;;;;;;;;;;;9.97;78.63;97408.98;1736844;80;24638;-89
2020/12/24 07:16:23;;;;;;;;;;;;;;;9.94;78.69;97416.58;1768386;80;23244;-89
2020/12/24 07:19:14;;;;;;;;;;;;;;;9.92;78.72;97420.30;1737411;79;26207;-90
2020/12/24 07:22:00;;;;;;;;;;;;;;;9.88;78.76;97417.09;1759845;80;24677;-89
2020/12/24 07:24:50;;;;;;;;;;;;;;;9.84;78.83;97410.47;1756931;80;20497;-90
2020/12/24 07:27:38;;;;;;;;;;;;;;;9.81;78.87;97412.05;1760934;80;25004;-89
2020/12/24 07:30:28;;;;;;;;;;;;;;;9.77;78.93;97413.23;1764089;80;22290;-89
2020/12/24 07:33:14;;;;;;;;;;;;;;;9.75;78.98;97413.02;1760929;80;26935;-89
2020/12/24 07:36:03;;;;;;;;;;;;;;;9.73;79.03;97413.61;1761722;80;25540;-89
2020/12/24 07:38:49;;;;;;;;;;;;;;;9.69;79.10;97397.38;1765380;79;20476;-89
2020/12/24 07:41:36;;;;;;;;;;;;;;;9.69;79.17;97404.38;1771585;79;25381;-88
2020/12/24 07:44:23;;;;;;;;;;;;;;;9.67;79.22;97405.80;1761986;80;22117;-89
2020/12/24 07:47:11;;;;;;;;;;;;;;;9.65;79.29;97404.62;1742187;79;27313;-89
2020/12/24 07:49:57;;;;;;;;;;;;;;;9.64;79.34;97399.55;1708507;82;26250;-90
2020/12/24 07:52:47;;;;;;;;;;;;;;;9.63;79.44;97394.80;1735371;81;20316;-91
2020/12/24 07:55:34;;;;;;;;;;;;;;;9.60;79.51;97402.87;1734430;81;25079;-90
2020/12/24 07:58:21;;;;;;;;;;;;;;;9.57;79.56;97397.91;1735125;81;22018;-89
2020/12/24 08:01:13;;;;;;;;;;;;;;;9.57;79.64;97393.98;1673014;81;26413;-91
2020/12/24 08:04:00;;;;;;;;;;;;;;;9.57;79.70;97395.77;1773154;80;24705;-91
2020/12/24 08:06:50;;;;;;;;;;;;;;;9.59;79.76;97391.26;1769650;79;20272;-89
2020/12/24 08:09:37;;;;;;;;;;;;;;;9.59;79.83;97393.39;1772974;80;24914;-90
2020/12/24 08:12:25;;;;;;;;;;;;;;;9.60;79.89;97386.39;1744421;79;22746;-90
2020/12/24 08:15:12;;;;;;;;;;;;;;;9.62;79.95;97393.13;1766039;80;26321;-91
2020/12/24 08:20:45;;;;;;;;;;;;;;;9.59;80.08;97396.01;1775091;79;20379;-92
2020/12/24 08:23:33;;;;;;;;;;;;;;;9.58;80.13;97398.27;1758462;80;24692;-91
2020/12/24 08:26:23;;;;;;;;;;;;;;;9.58;80.20;97398.73;1781355;79;22122;-91
2020/12/24 08:29:10;;;;;;;;;;;;;;;9.59;80.23;97403.84;1766924;80;26312;-92
2020/12/24 08:32:01;;;;;;;;;;;;;;;9.57;80.30;97408.35;1774294;80;24740;-92
2020/12/24 08:34:48;;;;;;;;;;;;;;;9.55;80.32;97409.42;1742645;80;20462;-93
2020/12/24 08:37:37;;;;;;;;;;;;;;;9.52;80.39;97415.73;1768321;80;24940;-93
2020/12/24 08:40:24;;;;;;;;;;;;;;;9.48;80.44;97419.56;1770200;80;22120;-92
2020/12/24 08:46:00;;;;;;;;;;;;;;;9.46;80.51;97424.55;1743466;80;24360;-92
2020/12/24 08:48:47;;;;;;;;;;;;;;;9.45;80.56;97422.88;1772799;80;20344;-91
2020/12/24 08:51:29;;;;;;;;;;;;;;;9.45;80.62;97428.94;1758546;79;24970;-91
2020/12/24 08:54:03;;;;;;;;;;;;;;;9.43;80.67;97432.64;1773282;79;22971;-92
2020/12/24 08:56:52;;;;;;;;;;;;;;;9.42;80.71;97437.51;1770986;80;25463;-92
2020/12/24 08:59:39;;;;;;;;;;;;;;;9.40;80.76;97431.56;1774816;79;24758;-90
2020/12/24 09:02:32;;;;;;;;;;;;;;;9.39;80.79;97424.68;1774350;80;20478;-93
2020/12/24 09:05:18;;;;;;;;;;;;;;;9.39;80.82;97433.82;1772747;80;25754;-91
2020/12/24 09:08:16;;;;;;;;;;;;;;;9.36;80.87;97433.61;1743854;80;22135;-92
2020/12/24 09:11:02;;;;;;;;;;;;;;;9.33;80.92;97429.92;1773432;80;26129;-92
2020/12/24 09:13:49;;;;;;;;;;;;;;;9.34;80.98;97438.59;1773804;80;24623;-93
2020/12/24 09:16:36;;;;;;;;;;;;;;;9.34;81.01;97422.92;1772382;80;20268;-93
2020/12/24 09:19:28;;;;;;;;;;;;;;;9.35;81.05;97427.20;1719260;82;24911;-92
2020/12/24 09:22:18;;;;;;;;;;;;;;;9.35;81.10;97416.75;1676982;84;21943;-92
2020/12/24 09:24:53;;;;;;;;;;;;;;;9.39;81.14;97419.46;1689848;84;26351;-93
2020/12/24 09:27:32;;;;;;;;;;;;;;;9.39;81.18;97424.68;1720300;82;24618;-93
2020/12/24 09:30:19;;;;;;;;;;;;;;;9.38;81.23;97421.23;1681348;84;20409;-93
2020/12/24 09:33:06;;;;;;;;;;;;;;;9.39;81.27;97427.30;1679843;85;25084;-93
2020/12/24 09:35:58;;;;;;;;;;;;;;;9.38;81.31;97423.05;1680659;84;22293;-92
2020/12/24 09:38:44;;;;;;;;;;;;;;;9.38;81.33;97412.09;1680093;85;26241;-92
2020/12/24 09:41:22;;;;;;;;;;;;;;;9.39;81.38;97416.38;1680999;85;25559;-92
2020/12/24 09:44:09;;;;;;;;;;;;;;;9.38;81.41;97417.33;1681082;85;20260;-92
2020/12/24 09:46:55;;;;;;;;;;;;;;;9.35;81.44;97411.06;1681286;84;25122;-91
2020/12/24 09:49:44;;;;;;;;;;;;;;;9.34;81.47;97417.70;1689157;84;21910;-92
2020/12/24 09:52:30;;;;;;;;;;;;;;;9.32;81.49;97415.71;1660669;85;26125;-92
2020/12/24 09:55:17;;;;;;;;;;;;;;;9.32;81.52;97406.09;1695456;83;24610;-92
2020/12/24 09:58:04;;;;;;;;;;;;;;;9.33;81.55;97413.45;1789698;79;20509;-91
2020/12/24 10:00:51;;;;;;;;;;;;;;;9.31;81.59;97409.66;1767258;81;24897;-92
2020/12/24 10:03:41;;;;;;;;;;;;;;;9.31;81.61;97410.13;1768069;80;21244;-91
2020/12/24 10:06:29;;;;;;;;;;;;;;;9.28;81.64;97403.36;1768598;80;27022;-92
2020/12/24 10:09:18;;;;;;;;;;;;;;;9.28;81.68;97403.83;1770525;80;25473;-93
2020/12/24 10:12:07;;;;;;;;;;;;;;;9.26;81.71;97399.23;1767800;81;20270;-93
2020/12/24 10:14:59;;;;;;;;;;;;;;;9.21;81.75;97397.83;1770699;80;24919;-92
2020/12/24 10:17:47;;;;;;;;;;;;;;;9.18;81.75;97397.23;1765941;81;22479;-92
2020/12/24 10:20:25;;;;;;;;;;;;;;;9.15;81.76;97396.19;1745504;82;26124;-91
2020/12/24 10:23:13;;;;;;;;;;;;;;;9.13;81.81;97399.38;1771499;81;24609;-92
2020/12/24 10:26:01;;;;;;;;;;;;;;;9.09;81.81;97396.20;1770859;81;20279;-92
2020/12/24 10:28:49;;;;;;;;;;;;;;;9.07;81.84;97390.73;1771124;80;25050;-92
2020/12/24 10:31:38;;;;;;;;;;;;;;;9.06;81.86;97392.98;1770735;79;22241;-91
2020/12/24 10:34:26;;;;;;;;;;;;;;;9.00;81.90;97386.98;1786279;79;26229;-90
2020/12/24 10:39:49;;;;;;;;;;;;;;;8.96;81.97;97380.33;1770199;81;20417;-91
2020/12/24 10:42:40;;;;;;;;;;;;;;;8.93;81.99;97381.89;1770800;80;24921;-92
2020/12/24 10:45:28;;;;;;;;;;;;;;;8.90;82.01;97376.43;1768252;81;22358;-92
2020/12/24 10:48:15;;;;;;;;;;;;;;;8.90;82.04;97379.04;1773340;79;27049;-90
2020/12/24 10:51:08;;;;;;;;;;;;;;;8.86;82.08;97368.98;1743708;80;24937;-89
2020/12/24 10:54:00;;;;;;;;;;;;;;;8.86;82.11;97368.98;1746234;82;20365;-90
2020/12/24 10:56:51;;;;;;;;;;;;;;;8.80;82.13;97360.69;1735912;79;24965;-91
2020/12/24 10:59:38;;;;;;;;;;;;;;;8.75;82.17;97356.31;1751234;79;22149;-90
2020/12/24 11:02:25;;;;;;;;;;;;;;;8.72;82.23;97359.19;1735113;79;25958;-89
2020/12/24 11:05:13;;;;;;;;;;;;;;;8.71;82.28;97360.12;1767152;79;24581;-91
2020/12/24 11:08:01;;;;;;;;;;;;;;;8.67;82.29;97349.56;1739501;80;20359;-89
2020/12/24 11:10:48;;;;;;;;;;;;;;;8.66;82.33;97346.63;1767890;80;24985;-91
2020/12/24 11:13:39;;;;;;;;;;;;;;;8.63;82.35;97337.73;1770753;79;22260;-89
2020/12/24 11:16:25;;;;;;;;;;;;;;;8.63;82.38;97342.11;1771834;79;26855;-89
2020/12/24 11:19:14;;;;;;;;;;;;;;;8.59;82.40;97344.61;1771201;79;24619;-89
2020/12/24 11:22:01;;;;;;;;;;;;;;;8.57;82.42;97340.81;1768741;79;20355;-88
2020/12/24 11:24:48;;;;;;;;;;;;;;;8.57;82.43;97326.95;1771467;79;25983;-88
2020/12/24 11:27:35;;;;;;;;;;;;;;;8.52;82.45;97320.80;1766586;79;22116;-88
2020/12/24 11:30:22;;;;;;;;;;;;;;;8.50;82.45;97316.20;1734775;79;25988;-88
2020/12/24 11:33:08;;;;;;;;;;;;;;;8.48;82.45;97314.17;1712968;82;24646;-89
2020/12/24 11:35:54;;;;;;;;;;;;;;;8.47;82.48;97318.20;1730035;81;20375;-88
2020/12/24 11:38:41;;;;;;;;;;;;;;;8.42;82.50;97318.57;1761190;78;24925;-88
2020/12/24 11:41:29;;;;;;;;;;;;;;;8.35;82.49;97318.22;1739546;81;22142;-89
2020/12/24 11:44:16;;;;;;;;;;;;;;;8.33;82.52;97320.61;1739851;81;26130;-89
2020/12/24 11:47:03;;;;;;;;;;;;;;;8.29;82.49;97318.66;1776862;79;24578;-88
2020/12/24 11:49:50;;;;;;;;;;;;;;;8.28;82.51;97315.73;1723641;81;20322;-88
2020/12/24 11:52:37;;;;;;;;;;;;;;;8.27;82.49;97306.72;1782300;79;24842;-89
2020/12/24 11:55:23;;;;;;;;;;;;;;;8.25;82.52;97300.31;1736030;81;22171;-92
2020/12/24 11:58:10;;;;;;;;;;;;;;;8.24;82.52;97292.61;1730456;79;26067;-89
2020/12/24 12:00:56;;;;;;;;;;;;;;;8.21;82.56;97289.78;1717387;82;24664;-90
2020/12/24 12:03:42;;;;;;;;;;;;;;;8.21;82.54;97287.64;1771228;79;20295;-88
2020/12/24 12:06:29;;;;;;;;;;;;;;;8.20;82.57;97284.68;1765198;79;24881;-90
2020/12/24 12:09:18;;;;;;;;;;;;;;;8.20;82.58;97282.91;1768604;80;22103;-89
2020/12/24 12:12:04;;;;;;;;;;;;;;;8.17;82.57;97284.94;1767411;80;26268;-88
2020/12/24 12:14:53;;;;;;;;;;;;;;;8.15;82.59;97282.44;1768815;80;25549;-90
2020/12/24 12:17:39;;;;;;;;;;;;;;;8.14;82.62;97273.43;1772449;80;20185;-89
2020/12/24 12:20:27;;;;;;;;;;;;;;;8.12;82.61;97264.92;1772675;80;24913;-89
2020/12/24 12:23:13;;;;;;;;;;;;;;;8.10;82.61;97251.18;1730585;80;23029;-89
2020/12/24 12:26:00;;;;;;;;;;;;;;;8.10;82.62;97260.30;1763083;79;26111;-89
2020/12/24 12:28:47;;;;;;;;;;;;;;;8.06;82.64;97244.09;1718937;82;25423;-89
2020/12/24 12:31:35;;;;;;;;;;;;;;;8.05;82.65;97238.98;1790207;78;20302;-89
2020/12/24 12:34:22;;;;;;;;;;;;;;;8.02;82.65;97231.43;1769530;80;25109;-89
2020/12/24 12:37:12;;;;;;;;;;;;;;;7.99;82.65;97228.10;1768701;80;22108;-88
2020/12/24 12:40:00;;;;;;;;;;;;;;;7.95;82.65;97216.28;1765642;79;26211;-88
2020/12/24 12:42:45;;;;;;;;;;;;;;;7.94;82.66;97189.87;1770356;79;24617;-88
2020/12/24 12:45:32;;;;;;;;;;;;;;;7.90;82.65;97146.78;1765855;79;20620;-89
2020/12/24 12:48:19;;;;;;;;;;;;;;;7.90;82.67;97158.98;1775990;79;25062;-89
2020/12/24 12:51:05;;;;;;;;;;;;;;;7.86;82.69;97168.80;1770219;80;22172;-89
2020/12/24 12:53:52;;;;;;;;;;;;;;;7.85;82.68;97188.00;1768586;80;26112;-89
2020/12/24 12:56:40;;;;;;;;;;;;;;;7.83;82.67;97193.79;1772685;79;24559;-89
2020/12/24 12:59:27;;;;;;;;;;;;;;;7.84;82.68;97195.92;1770734;80;20528;-89
2020/12/24 13:02:15;;;;;;;;;;;;;;;7.84;82.67;97198.06;1743139;80;26077;-89
2020/12/24 13:05:02;;;;;;;;;;;;;;;7.86;82.68;97202.66;1817536;77;22222;-89
2020/12/24 13:07:49;;;;;;;;;;;;;;;7.87;82.69;97196.50;1838888;77;26116;-89
2020/12/24 13:10:36;;;;;;;;;;;;;;;7.88;82.69;97174.72;1805223;77;25588;-89
2020/12/24 13:13:31;;;;;;;;;;;;;;;7.95;82.70;97190.23;1841638;77;20330;-88
2020/12/24 13:16:17;;;;;;;;;;;;;;;7.96;82.71;97211.90;1839261;77;24973;-89
2020/12/24 13:19:04;;;;;;;;;;;;;;;7.93;82.72;97237.70;1840879;77;22191;-89
2020/12/24 13:21:51;;;;;;;;;;;;;;;7.89;82.72;97232.38;1842379;77;26109;-89
2020/12/24 13:24:39;;;;;;;;;;;;;;;7.89;82.71;97230.25;1841717;77;24621;-88
2020/12/24 13:27:26;;;;;;;;;;;;;;;7.87;82.70;97225.16;1838724;77;20286;-88
2020/12/24 13:30:13;;;;;;;;;;;;;;;7.86;82.68;97226.56;1801542;77;24872;-88
2020/12/24 13:33:00;;;;;;;;;;;;;;;7.82;82.69;97225.98;1839342;77;22365;-89
2020/12/24 13:35:47;;;;;;;;;;;;;;;7.78;82.66;97215.47;1805765;77;26316;-88
2020/12/24 13:38:33;;;;;;;;;;;;;;;7.75;82.65;97220.89;1843422;77;25479;-88
2020/12/24 13:41:22;;;;;;;;;;;;;;;7.75;82.62;97230.48;1834822;77;20184;-88
2020/12/24 13:44:09;;;;;;;;;;;;;;;7.72;82.61;97228.95;1861648;77;24971;-89
2020/12/24 13:46:43;;;;;;;;;;;;;;;7.70;82.57;97225.63;1836411;77;22144;-89
2020/12/24 13:49:31;;;;;;;;;;;;;;;7.67;82.54;97236.30;1835023;77;26121;-89
2020/12/24 13:52:18;;;;;;;;;;;;;;;7.65;82.51;97217.35;1817268;77;24682;-89
2020/12/24 13:55:07;;;;;;;;;;;;;;;7.62;82.47;97216.30;1834172;77;20243;-89
2020/12/24 13:57:55;;;;;;;;;;;;;;;7.61;82.42;97222.92;1815937;77;25365;-88
2020/12/24 14:00:42;;;;;;;;;;;;;;;7.58;82.38;97237.02;1832457;77;22144;-89
2020/12/24 14:03:28;;;;;;;;;;;;;;;7.55;82.36;97232.03;1812782;77;26412;-89
2020/12/24 14:06:18;;;;;;;;;;;;;;;7.54;82.30;97232.97;1828322;78;24553;-88
2020/12/24 14:09:04;;;;;;;;;;;;;;;7.53;82.27;97242.55;1828974;78;20337;-88
2020/12/24 14:11:51;;;;;;;;;;;;;;;7.51;82.23;97249.67;1830352;78;24977;-88
2020/12/24 14:14:38;;;;;;;;;;;;;;;7.49;82.21;97256.75;1825367;78;22237;-89
2020/12/24 14:17:20;;;;;;;;;;;;;;;7.49;82.15;97252.84;1820938;78;27033;-88
2020/12/24 14:20:07;;;;;;;;;;;;;;;7.51;82.13;97254.05;1822703;78;24569;-89
2020/12/24 14:22:55;;;;;;;;;;;;;;;7.48;82.11;97231.66;1801476;78;20259;-89
2020/12/24 14:25:42;;;;;;;;;;;;;;;7.49;82.08;97224.69;1826411;78;24910;-88
2020/12/24 14:28:29;;;;;;;;;;;;;;;7.50;82.04;97225.05;1808620;78;21955;-88
2020/12/24 14:31:19;;;;;;;;;;;;;;;7.48;82.01;97205.63;1829657;78;26117;-88
2020/12/24 14:34:06;;;;;;;;;;;;;;;7.46;81.98;97209.31;1799120;78;24836;-87
2020/12/24 14:36:56;;;;;;;;;;;;;;;7.44;81.93;97187.77;1826478;78;20354;-86
2020/12/24 14:39:43;;;;;;;;;;;;;;;7.41;81.90;97174.54;1825323;77;25054;-86
2020/12/24 14:42:33;;;;;;;;;;;;;;;7.41;81.87;97178.44;1828113;77;22281;-86
2020/12/24 14:45:20;;;;;;;;;;;;;;;7.38;81.82;97163.52;1828899;77;26092;-86